Bolshoye Savino Airport
USPP : now visible

Airfield :











YOU CAN JOIN US ON...

 
LOGIN :

Register | Disclaimer

   EN    FR    IT 

 









Legend :    VFR   Marginal VFR   IFR   Intensive IFR   Very Intensive IFR
Visi :
Ceiling :
>= 8 km
>= 3000ft
5 to 8 km
1000 to 3000 ft
1500m to 5 km
500 to 1000 ft
800 to 1500m
200 to 500 ft
< 800m
< 200 ft
Symbols :   Thunderstorms  Fog  Heavy snow  Heavy precipitations  Wind > 20 kt






- Airport Elevation : 404 ft
- IATA code : PEE


USPP - Bolshoye Savino

CURRENT METAR :
  • 041800Z 13004MPS CAVOK 02/00 Q1012 R21/090060 NOSIG RMK QFE748

EXPIRED METARs :
  • 041730Z 13004MPS CAVOK 03/00 Q1012 R21/090060 NOSIG RMK QFE748
  • 041700Z 11004MPS CAVOK 02/00 Q1012 R21/090060 NOSIG RMK QFE748
  • 041630Z 12004MPS CAVOK 03/00 Q1012 R21/090060 NOSIG RMK QFE748
  • 041600Z 13004MPS CAVOK 04/01 Q1012 R21/090060 NOSIG RMK QFE748
  • 041530Z 13005MPS CAVOK 05/01 Q1012 R21/090060 NOSIG RMK QFE748

TAF TAF USPP
Valid from the 04 at 18:00 until the 05 at 18:00 UTC


041659Z 0418/0518 14003G10MPS 9999 SCT020
BECMG 0421/0422 18003G11MPS BKN016CB
BECMG 0500/0501 27003G12MPS 8000 -SHSNRA



MET'MAP, your aeronautical weather chart ! - Copyright ORBIFLY December 2007 - Disclaimer

ORBIFLY MET'MAP TEAM :

Programming & Development : Alexandra Zaïnal
Concept & original design : Baudouin d'Aumeries
Assistance for programming : Marc-Olivier Méhu
Technical & hardware support : Manuel Goepfert

Contact : metmap@orbifly.com




SOURCES & CREDITS :

   NOAA       Earth
Advisory